Time;durP1;ratioP1;P1;durP2;ratioP2;P2;SDS_P1;SDS_P2;PMS_P1;PMS_P2;Temp;Humidity;BMP_temperature;BMP_pressure;BME280_temperature;BME280_humidity;BME280_pressure;Samples;Min_cycle;Max_cycle;Signal;HPM_P1;HPM_P2
2021/05/13 00:01:36;;;;;;;9.30;6.70;;;8.00;99.90;;;;;;5113922;28;20440;-71
2021/05/13 00:04:03;;;;;;;8.90;6.17;;;7.90;99.90;;;;;;5113748;28;20435;-70
2021/05/13 00:06:30;;;;;;;8.30;5.90;;;7.90;99.90;;;;;;5113662;28;20459;-70
2021/05/13 00:08:57;;;;;;;7.27;6.10;;;7.90;99.90;;;;;;5113463;28;20493;-71
2021/05/13 00:11:29;;;;;;;8.10;6.43;;;7.90;99.90;;;;;;5113246;28;20536;-72
2021/05/13 00:13:56;;;;;;;52.20;9.83;;;7.90;99.90;;;;;;5113057;28;20443;-71
2021/05/13 00:16:28;;;;;;;36.23;9.13;;;7.90;99.90;;;;;;5113368;28;20855;-71
2021/05/13 00:18:55;;;;;;;10.40;7.77;;;7.80;99.90;;;;;;5113433;28;20925;-71
2021/05/13 00:21:22;;;;;;;11.23;7.63;;;7.90;99.90;;;;;;5113453;28;20455;-71
2021/05/13 00:23:49;;;;;;;14.20;8.07;;;7.90;99.90;;;;;;5113549;28;20436;-72
2021/05/13 00:26:19;;;;;;;59.83;10.60;;;7.80;99.90;;;;;;5113065;28;20517;-73
2021/05/13 00:28:46;;;;;;;55.43;8.60;;;7.80;99.90;;;;;;5113307;28;20515;-71
2021/05/13 00:31:13;;;;;;;105.53;12.23;;;7.80;99.90;;;;;;5113256;28;20802;-71
2021/05/13 00:33:39;;;;;;;149.43;14.37;;;7.80;99.90;;;;;;5113330;28;20442;-71
2021/05/13 00:36:06;;;;;;;84.73;9.70;;;7.80;99.90;;;;;;5113330;28;20936;-72
2021/05/13 00:38:33;;;;;;;57.27;7.83;;;7.80;99.90;;;;;;5112986;28;20850;-71
2021/05/13 00:41:00;;;;;;;121.03;13.30;;;7.70;99.90;;;;;;5112648;28;20914;-72
2021/05/13 00:43:26;;;;;;;81.77;10.33;;;7.70;99.90;;;;;;5113041;27;20931;-72
2021/05/13 00:45:54;;;;;;;31.73;7.90;;;7.80;99.90;;;;;;5113055;28;20525;-71
2021/05/13 00:48:21;;;;;;;16.33;6.80;;;7.80;99.90;;;;;;5112933;28;20431;-71
2021/05/13 00:50:47;;;;;;;68.57;10.20;;;7.70;99.90;;;;;;5112860;28;20468;-70
2021/05/13 00:53:14;;;;;;;77.17;11.00;;;7.70;99.90;;;;;;5112775;28;20847;-71
2021/05/13 00:55:41;;;;;;;98.80;9.87;;;7.60;99.90;;;;;;5112543;28;20802;-70
2021/05/13 00:58:09;;;;;;;149.97;13.37;;;7.60;99.90;;;;;;5112537;28;20435;-71
2021/05/13 01:00:40;;;;;;;22.17;7.00;;;7.60;99.90;;;;;;5112451;28;20520;-71
2021/05/13 01:03:08;;;;;;;61.03;10.17;;;7.60;99.90;;;;;;5112813;28;20791;-71
2021/05/13 01:05:37;;;;;;;10.10;7.20;;;7.60;99.90;;;;;;5112493;28;20440;-71
2021/05/13 01:08:05;;;;;;;26.37;6.87;;;7.60;99.90;;;;;;5111658;28;20801;-71
2021/05/13 01:10:33;;;;;;;9.70;5.53;;;7.60;99.90;;;;;;5112290;28;20831;-71
2021/05/13 01:13:05;;;;;;;6.73;5.93;;;7.60;99.90;;;;;;5112032;28;20442;-70
2021/05/13 01:15:37;;;;;;;6.63;5.67;;;7.60;99.90;;;;;;5111697;27;20458;-71
2021/05/13 01:18:08;;;;;;;6.53;5.37;;;7.60;99.90;;;;;;5112320;28;20914;-72
2021/05/13 01:20:36;;;;;;;8.07;6.40;;;7.50;99.90;;;;;;5112305;28;20493;-71
2021/05/13 01:23:07;;;;;;;8.33;5.97;;;7.50;99.90;;;;;;5112221;28;21121;-70
2021/05/13 01:25:43;;;;;;;7.87;6.50;;;7.50;99.90;;;;;;5112110;28;20531;-71
2021/05/13 01:28:10;;;;;;;6.47;5.13;;;7.50;99.90;;;;;;5112126;28;20428;-72
2021/05/13 01:30:36;;;;;;;16.90;5.73;;;7.40;99.90;;;;;;5111810;28;20427;-71
2021/05/13 01:33:03;;;;;;;8.73;4.90;;;7.40;99.90;;;;;;5112181;28;20431;-71
2021/05/13 01:35:30;;;;;;;6.07;4.87;;;7.40;99.90;;;;;;5111891;28;20451;-71
2021/05/13 01:38:06;;;;;;;8.07;5.77;;;7.30;99.90;;;;;;5111946;28;20427;-71
2021/05/13 01:40:33;;;;;;;7.70;5.00;;;7.30;99.90;;;;;;5111650;28;20444;-71
2021/05/13 01:43:00;;;;;;;5.60;4.50;;;7.20;99.90;;;;;;5111438;28;20956;-71
2021/05/13 01:45:27;;;;;;;13.43;5.57;;;7.20;99.90;;;;;;5111622;28;20444;-71
2021/05/13 01:48:01;;;;;;;5.90;4.67;;;7.20;99.90;;;;;;5111873;28;20429;-71
2021/05/13 01:50:33;;;;;;;239.87;13.20;;;7.00;99.90;;;;;;5111689;28;20766;-71
2021/05/13 01:53:02;;;;;;;230.67;12.50;;;7.00;99.90;;;;;;5111674;28;20978;-70
2021/05/13 01:55:30;;;;;;;253.90;13.33;;;6.80;99.90;;;;;;5111562;28;20519;-71
2021/05/13 01:57:56;;;;;;;105.03;8.47;;;6.70;99.90;;;;;;5110712;27;20458;-71
2021/05/13 02:00:24;;;;;;;59.47;6.40;;;6.60;99.90;;;;;;5111246;28;20433;-71
2021/05/13 02:02:50;;;;;;;36.03;6.80;;;6.50;99.90;;;;;;5111681;28;20617;-71
2021/05/13 02:05:18;;;;;;;96.30;10.13;;;6.50;99.90;;;;;;5111498;28;20953;-71
2021/05/13 02:07:45;;;;;;;57.37;6.67;;;6.40;99.90;;;;;;5111497;28;20423;-71
2021/05/13 02:10:13;;;;;;;18.53;6.00;;;6.40;99.90;;;;;;5111044;28;20436;-71
2021/05/13 02:12:41;;;;;;;7.60;5.77;;;6.40;99.90;;;;;;5111442;28;20472;-70
2021/05/13 02:15:10;;;;;;;9.43;6.03;;;6.50;99.90;;;;;;5110939;28;20582;-71
2021/05/13 02:17:37;;;;;;;10.50;6.93;;;6.50;99.90;;;;;;5111485;28;20824;-71
2021/05/13 02:20:07;;;;;;;10.27;7.60;;;6.50;99.90;;;;;;5110939;28;20431;-72
2021/05/13 02:22:33;;;;;;;14.53;8.80;;;6.50;99.90;;;;;;5111231;28;20800;-71
2021/05/13 02:25:00;;;;;;;158.73;15.13;;;6.50;99.90;;;;;;5111203;28;20440;-71
2021/05/13 02:27:27;;;;;;;107.90;11.07;;;6.50;99.90;;;;;;5110922;28;20425;-72
2021/05/13 02:29:54;;;;;;;152.53;16.40;;;6.50;99.90;;;;;;5110960;28;20916;-71
2021/05/13 02:32:21;;;;;;;106.67;12.43;;;6.50;99.90;;;;;;5111108;28;20510;-72
2021/05/13 02:34:48;;;;;;;36.03;8.30;;;6.40;99.90;;;;;;5111427;28;20457;-71
2021/05/13 02:37:14;;;;;;;122.50;11.33;;;6.50;99.90;;;;;;5111020;28;20443;-71
2021/05/13 02:39:41;;;;;;;46.57;7.93;;;6.50;99.90;;;;;;5110967;28;20430;-72
2021/05/13 02:42:08;;;;;;;83.70;10.80;;;6.50;99.90;;;;;;5110884;28;20426;-72
2021/05/13 02:44:34;;;;;;;38.83;7.60;;;6.50;99.90;;;;;;5110924;28;20451;-71
2021/05/13 02:47:02;;;;;;;53.17;7.10;;;6.50;99.90;;;;;;5111062;28;20427;-71
2021/05/13 02:49:28;;;;;;;39.43;6.57;;;6.40;99.90;;;;;;5110920;28;20442;-71
2021/05/13 02:51:55;;;;;;;17.73;5.33;;;6.30;99.90;;;;;;5111095;28;20982;-71
2021/05/13 02:54:22;;;;;;;10.43;5.10;;;6.30;99.90;;;;;;5111016;28;20482;-71
2021/05/13 02:56:49;;;;;;;12.20;4.53;;;6.30;99.90;;;;;;5110874;28;20433;-72
2021/05/13 02:59:16;;;;;;;6.53;4.30;;;6.30;99.90;;;;;;5110727;28;20460;-72
2021/05/13 03:01:43;;;;;;;7.60;4.73;;;6.20;99.90;;;;;;5110959;28;20944;-72
2021/05/13 03:04:11;;;;;;;6.80;4.17;;;6.20;99.90;;;;;;5110860;28;20443;-72
2021/05/13 03:06:38;;;;;;;5.07;4.17;;;6.20;99.90;;;;;;5110890;28;20942;-71
2021/05/13 03:09:06;;;;;;;5.57;4.67;;;6.10;99.90;;;;;;5110166;28;20536;-71
2021/05/13 03:11:33;;;;;;;6.03;5.30;;;6.10;99.90;;;;;;5110515;28;20466;-71
2021/05/13 03:14:02;;;;;;;5.43;4.37;;;6.10;99.90;;;;;;5110790;28;20436;-71
2021/05/13 03:16:29;;;;;;;5.17;3.90;;;6.10;99.90;;;;;;5111049;28;20466;-70
2021/05/13 03:18:57;;;;;;;7.27;4.70;;;6.10;99.90;;;;;;5110026;28;20499;-72
2021/05/13 03:21:28;;;;;;;22.20;6.50;;;6.10;99.90;;;;;;5111121;28;20438;-73
2021/05/13 03:23:59;;;;;;;11.17;5.50;;;6.00;99.90;;;;;;5110708;28;20436;-71
2021/05/13 03:26:36;;;;;;;55.90;7.97;;;6.00;99.90;;;;;;5110690;28;20832;-72
2021/05/13 03:29:02;;;;;;;8.53;5.70;;;6.10;99.90;;;;;;5110351;28;20434;-73
2021/05/13 03:31:29;;;;;;;25.70;6.57;;;6.00;99.90;;;;;;5112761;28;20469;-72
2021/05/13 03:33:56;;;;;;;10.53;6.30;;;6.00;99.90;;;;;;5114514;28;20480;-71
2021/05/13 03:36:23;;;;;;;12.10;6.90;;;6.10;99.90;;;;;;5114383;28;20466;-72
2021/05/13 03:38:50;;;;;;;17.23;6.50;;;6.00;99.90;;;;;;5114039;28;20431;-70
2021/05/13 03:41:17;;;;;;;8.33;6.60;;;6.00;99.90;;;;;;5113905;28;20433;-71
2021/05/13 03:43:43;;;;;;;9.23;6.80;;;6.00;99.90;;;;;;5128115;27;20922;-72
2021/05/13 03:46:10;;;;;;;11.00;7.30;;;6.10;99.90;;;;;;5134451;27;20502;-72
2021/05/13 03:48:37;;;;;;;10.10;6.40;;;6.10;99.90;;;;;;5127556;27;20442;-71
2021/05/13 03:51:04;;;;;;;12.80;8.33;;;6.10;99.90;;;;;;5113925;28;20477;-73
2021/05/13 03:53:32;;;;;;;12.93;8.60;;;6.10;99.90;;;;;;5114093;28;20422;-72
2021/05/13 03:55:58;;;;;;;8.90;6.43;;;6.20;99.90;;;;;;5114091;28;20451;-72
2021/05/13 03:58:28;;;;;;;6.97;5.60;;;6.20;99.90;;;;;;5113607;28;20465;-72
2021/05/13 04:01:07;;;;;;;13.00;7.77;;;6.20;99.90;;;;;;5113713;28;20435;-72
2021/05/13 04:03:34;;;;;;;8.37;6.93;;;6.20;99.90;;;;;;5114229;28;20435;-72
2021/05/13 04:06:01;;;;;;;17.63;7.27;;;6.20;99.90;;;;;;5113124;28;20503;-71
2021/05/13 04:08:27;;;;;;;8.53;6.73;;;6.20;99.90;;;;;;5113821;28;20765;-71
2021/05/13 04:10:55;;;;;;;11.60;8.00;;;6.20;99.90;;;;;;5128182;27;20426;-69
2021/05/13 04:13:22;;;;;;;18.47;9.17;;;6.20;99.90;;;;;;5134231;27;20463;-70
2021/05/13 04:15:49;;;;;;;9.87;7.67;;;6.30;99.90;;;;;;5134578;27;20803;-69
2021/05/13 04:18:16;;;;;;;13.03;7.50;;;6.30;99.90;;;;;;5128426;27;20508;-73
2021/05/13 04:20:43;;;;;;;12.93;6.03;;;6.40;99.90;;;;;;5123283;27;20436;-72
2021/05/13 04:23:10;;;;;;;7.93;5.13;;;6.40;99.90;;;;;;5123146;27;20415;-73
2021/05/13 04:25:36;;;;;;;28.97;5.77;;;6.30;99.90;;;;;;5124071;27;20812;-73
2021/05/13 04:28:04;;;;;;;5.97;4.77;;;6.30;99.90;;;;;;5122468;27;21266;-72
2021/05/13 04:30:31;;;;;;;8.10;4.93;;;6.40;99.90;;;;;;5122444;27;20919;-72
2021/05/13 04:32:58;;;;;;;5.30;4.70;;;6.50;99.90;;;;;;5124251;27;20827;-72
2021/05/13 04:35:28;;;;;;;11.63;5.33;;;6.50;99.90;;;;;;5122812;27;20447;-73
2021/05/13 04:37:55;;;;;;;9.57;5.93;;;6.50;99.90;;;;;;5122181;27;20439;-73
2021/05/13 04:40:22;;;;;;;12.40;6.43;;;6.50;99.90;;;;;;5121800;27;20514;-74
2021/05/13 04:42:48;;;;;;;9.00;5.87;;;6.50;99.90;;;;;;5124724;27;20803;-72
2021/05/13 04:45:16;;;;;;;6.80;6.10;;;6.60;99.90;;;;;;5124911;27;20441;-73
2021/05/13 04:48:03;;;;;;;10.80;5.30;;;6.60;99.90;;;;;;5132650;27;20441;-73
2021/05/13 04:50:30;;;;;;;11.53;6.70;;;6.60;99.90;;;;;;5112925;28;20492;-73
2021/05/13 04:53:08;;;;;;;8.10;6.37;;;6.70;99.90;;;;;;5112622;27;20463;-74
2021/05/13 04:55:36;;;;;;;10.90;5.70;;;6.70;99.90;;;;;;5115790;27;20493;-70
2021/05/13 04:58:03;;;;;;;7.90;5.93;;;6.80;99.90;;;;;;5123808;27;20897;-70
2021/05/13 05:00:30;;;;;;;10.67;6.63;;;6.90;99.90;;;;;;5115283;27;20427;-70
2021/05/13 05:02:57;;;;;;;9.40;6.87;;;6.70;99.90;;;;;;5112556;28;20437;-71
2021/05/13 05:05:25;;;;;;;9.77;7.30;;;6.50;99.90;;;;;;5112620;28;20939;-70
2021/05/13 05:07:52;;;;;;;9.13;6.23;;;6.50;99.90;;;;;;5112390;28;20437;-71
2021/05/13 05:10:19;;;;;;;11.97;6.90;;;6.50;99.90;;;;;;5112460;28;20797;-71
2021/05/13 05:12:46;;;;;;;12.17;8.00;;;6.50;99.90;;;;;;5118894;27;20475;-71
2021/05/13 05:15:13;;;;;;;14.30;8.83;;;6.60;99.90;;;;;;5121540;27;20987;-70
2021/05/13 05:17:41;;;;;;;16.10;8.20;;;6.60;99.90;;;;;;5123317;27;20446;-70
2021/05/13 05:20:08;;;;;;;13.80;9.07;;;6.70;99.90;;;;;;5122273;27;20445;-71
2021/05/13 05:22:35;;;;;;;16.07;8.77;;;6.80;99.90;;;;;;5124015;27;20476;-71
2021/05/13 05:25:06;;;;;;;19.57;11.03;;;6.90;99.90;;;;;;5133045;27;20475;-70
2021/05/13 05:27:34;;;;;;;19.17;10.87;;;7.00;99.90;;;;;;5131875;27;20430;-72
2021/05/13 05:30:00;;;;;;;23.87;11.40;;;7.20;99.90;;;;;;5121671;27;20436;-70
2021/05/13 05:32:27;;;;;;;18.63;11.50;;;7.20;99.90;;;;;;5121282;27;20466;-69
2021/05/13 05:34:55;;;;;;;18.73;11.67;;;7.30;99.90;;;;;;5123190;27;20458;-70
2021/05/13 05:37:21;;;;;;;23.53;10.93;;;7.40;99.90;;;;;;5121381;27;20439;-70
2021/05/13 05:39:48;;;;;;;20.50;12.50;;;7.50;99.90;;;;;;5126450;27;20435;-70
2021/05/13 05:42:15;;;;;;;25.17;12.77;;;7.60;99.90;;;;;;5132206;27;20800;-70
2021/05/13 05:44:41;;;;;;;20.60;12.27;;;7.70;99.90;;;;;;5132211;27;20966;-70
2021/05/13 05:47:10;;;;;;;22.33;11.70;;;7.70;99.90;;;;;;5129221;27;20436;-71
2021/05/13 05:49:36;;;;;;;24.43;12.17;;;7.50;99.90;;;;;;5112253;27;20467;-70
2021/05/13 05:52:04;;;;;;;24.23;13.53;;;7.50;99.90;;;;;;5113326;27;20830;-70
2021/05/13 05:54:31;;;;;;;27.47;13.40;;;7.50;99.90;;;;;;5111206;28;20443;-71
2021/05/13 05:56:57;;;;;;;28.23;12.90;;;7.60;99.90;;;;;;5111380;28;20515;-71
2021/05/13 05:59:24;;;;;;;34.33;12.07;;;7.50;99.90;;;;;;5113766;27;20461;-70
2021/05/13 06:01:51;;;;;;;32.73;14.07;;;7.60;99.90;;;;;;5111541;27;20431;-70
2021/05/13 06:04:17;;;;;;;22.10;12.27;;;7.60;99.90;;;;;;5110930;28;21068;-71
2021/05/13 06:06:44;;;;;;;24.90;11.20;;;7.60;99.90;;;;;;5111753;28;20444;-70
2021/05/13 06:09:12;;;;;;;25.63;13.70;;;7.70;99.90;;;;;;5111416;28;20429;-71
2021/05/13 06:11:39;;;;;;;21.07;11.87;;;7.70;99.90;;;;;;5112784;27;20475;-70
2021/05/13 06:14:05;;;;;;;22.23;12.70;;;7.80;99.90;;;;;;5107091;27;20478;-69
2021/05/13 06:16:32;;;;;;;20.80;13.83;;;7.90;99.90;;;;;;5123795;27;20858;-69
2021/05/13 06:19:00;;;;;;;23.00;12.27;;;8.10;99.90;;;;;;5131697;27;20781;-69
2021/05/13 06:21:27;;;;;;;21.50;11.63;;;8.10;99.90;;;;;;5131603;27;20439;-68
2021/05/13 06:23:56;;;;;;;16.20;10.50;;;8.10;99.90;;;;;;5120040;27;20478;-70
2021/05/13 06:26:25;;;;;;;23.87;12.93;;;8.20;99.90;;;;;;5111412;28;20451;-68
2021/05/13 06:28:52;;;;;;;20.63;10.77;;;8.30;99.90;;;;;;5111211;28;20782;-69
2021/05/13 06:31:19;;;;;;;16.67;11.17;;;8.20;99.90;;;;;;5114691;28;20495;-68
2021/05/13 06:33:46;;;;;;;18.37;10.70;;;8.40;99.90;;;;;;5120529;27;20431;-69
2021/05/13 06:36:13;;;;;;;19.70;11.17;;;8.50;99.90;;;;;;5131592;27;20472;-68
2021/05/13 06:38:39;;;;;;;19.97;11.80;;;8.70;99.90;;;;;;5131527;27;20426;-69
2021/05/13 06:41:07;;;;;;;18.20;12.13;;;8.80;99.90;;;;;;5131110;27;20450;-68
2021/05/13 06:43:36;;;;;;;16.03;10.07;;;8.90;99.90;;;;;;5131796;27;20427;-69
2021/05/13 06:46:02;;;;;;;17.73;9.73;;;8.90;99.90;;;;;;5131303;27;20446;-69
2021/05/13 06:48:29;;;;;;;13.90;8.90;;;9.10;99.90;;;;;;5114847;27;20481;-69
2021/05/13 06:50:56;;;;;;;15.80;10.03;;;9.20;99.90;;;;;;5128365;28;20435;-69
2021/05/13 06:53:22;;;;;;;13.50;9.73;;;9.30;99.90;;;;;;5131483;28;20435;-69
2021/05/13 06:55:52;;;;;;;12.00;8.47;;;9.40;99.90;;;;;;5131387;27;20443;-69
2021/05/13 06:58:20;;;;;;;10.70;7.60;;;9.50;99.90;;;;;;5131140;27;20428;-69
2021/05/13 07:00:48;;;;;;;15.80;9.17;;;9.60;99.90;;;;;;5125945;27;20570;-69
2021/05/13 07:03:16;;;;;;;12.37;8.87;;;9.70;99.90;;;;;;5110961;28;20451;-70
2021/05/13 07:05:43;;;;;;;10.80;7.60;;;9.80;99.90;;;;;;5111186;28;20463;-69
2021/05/13 07:08:10;;;;;;;13.50;8.57;;;9.90;99.90;;;;;;5114852;28;20816;-69
2021/05/13 07:10:37;;;;;;;10.73;7.63;;;10.00;99.90;;;;;;5114416;28;20434;-69
2021/05/13 07:13:05;;;;;;;10.50;7.67;;;10.10;99.90;;;;;;5115585;27;20514;-69
2021/05/13 07:15:32;;;;;;;10.33;7.57;;;10.30;99.90;;;;;;5121108;27;20471;-69
2021/05/13 07:18:00;;;;;;;11.10;7.43;;;10.50;99.90;;;;;;5134349;27;20838;-69
2021/05/13 07:20:32;;;;;;;10.73;7.47;;;10.60;99.90;;;;;;5134859;27;20428;-69
2021/05/13 07:22:59;;;;;;;8.93;6.87;;;10.70;99.90;;;;;;5131857;27;20950;-68
2021/05/13 07:25:26;;;;;;;14.70;7.20;;;10.80;99.90;;;;;;5114541;28;20448;-70
2021/05/13 07:27:53;;;;;;;10.00;6.87;;;10.80;99.90;;;;;;5133189;27;20446;-70
2021/05/13 07:30:20;;;;;;;14.03;7.00;;;10.80;99.90;;;;;;5134783;27;20789;-69
2021/05/13 07:32:49;;;;;;;10.83;7.10;;;10.90;99.90;;;;;;5137105;27;20493;-70
2021/05/13 07:35:18;;;;;;;11.03;8.13;;;10.90;99.90;;;;;;5131534;27;20943;-71
2021/05/13 07:37:44;;;;;;;8.13;6.10;;;10.80;99.90;;;;;;5124764;27;20423;-69
2021/05/13 07:40:13;;;;;;;7.87;5.03;;;10.70;99.90;;;;;;5119827;27;20428;-69
2021/05/13 07:42:40;;;;;;;7.30;5.17;;;10.50;99.90;;;;;;5122788;27;20424;-67
2021/05/13 07:45:07;;;;;;;7.57;5.10;;;10.20;99.90;;;;;;5124051;27;20439;-68
2021/05/13 07:47:37;;;;;;;7.80;5.30;;;10.10;99.90;;;;;;5124470;27;20428;-67
2021/05/13 07:50:06;;;;;;;8.27;6.53;;;9.90;99.90;;;;;;5122913;27;20428;-68
2021/05/13 07:52:34;;;;;;;9.50;5.97;;;9.90;99.90;;;;;;5123691;27;20475;-67
2021/05/13 07:55:02;;;;;;;7.47;5.50;;;9.90;99.90;;;;;;5113782;28;20460;-68
2021/05/13 07:57:28;;;;;;;9.77;6.20;;;10.00;99.90;;;;;;5113777;28;20439;-68
2021/05/13 07:59:55;;;;;;;6.10;4.70;;;10.10;99.90;;;;;;5112115;28;20420;-68
2021/05/13 08:02:22;;;;;;;7.30;5.37;;;10.30;99.90;;;;;;5113106;28;20432;-68
2021/05/13 08:04:49;;;;;;;6.43;5.40;;;10.60;99.90;;;;;;5113295;28;20516;-67
2021/05/13 08:07:18;;;;;;;10.43;4.93;;;10.80;99.90;;;;;;5113722;28;20442;-67
2021/05/13 08:09:46;;;;;;;8.63;5.20;;;10.80;99.90;;;;;;5125483;27;20439;-68
2021/05/13 08:12:12;;;;;;;5.77;5.13;;;11.00;99.90;;;;;;5133830;27;20637;-68
2021/05/13 08:14:48;;;;;;;6.17;5.30;;;11.10;99.90;;;;;;5129913;27;20466;-67
2021/05/13 08:17:25;;;;;;;7.03;5.30;;;11.10;99.90;;;;;;5128410;27;20477;-67
2021/05/13 08:19:52;;;;;;;9.67;6.27;;;11.20;99.90;;;;;;5114910;27;20590;-67
2021/05/13 08:22:22;;;;;;;7.03;6.00;;;11.20;99.90;;;;;;5113249;28;20432;-68
2021/05/13 08:24:53;;;;;;;7.80;6.60;;;11.10;99.90;;;;;;5112662;27;20562;-67
2021/05/13 08:27:23;;;;;;;8.00;4.70;;;11.00;99.90;;;;;;5116044;27;20867;-68
2021/05/13 08:29:54;;;;;;;7.37;5.10;;;11.00;99.90;;;;;;5113266;28;20424;-67
2021/05/13 08:32:23;;;;;;;17.03;4.80;;;11.10;99.90;;;;;;5113098;28;20995;-67
2021/05/13 08:34:50;;;;;;;6.70;4.70;;;11.30;99.90;;;;;;5113302;28;20464;-68
2021/05/13 08:37:17;;;;;;;6.27;4.90;;;11.50;99.90;;;;;;5113090;28;20443;-68
2021/05/13 08:39:44;;;;;;;5.93;4.43;;;11.60;99.90;;;;;;5112643;28;20536;-68
2021/05/13 08:42:13;;;;;;;5.47;4.30;;;11.50;99.90;;;;;;5112325;28;20436;-68
2021/05/13 08:44:42;;;;;;;5.80;4.10;;;11.70;99.90;;;;;;5112895;28;20585;-67
2021/05/13 08:47:09;;;;;;;5.50;4.10;;;11.80;99.90;;;;;;5113055;28;20559;-67
2021/05/13 08:49:36;;;;;;;4.33;3.90;;;11.80;99.90;;;;;;5112783;28;20451;-67
2021/05/13 08:52:05;;;;;;;7.03;4.50;;;11.90;99.90;;;;;;5111835;28;20470;-67
2021/05/13 08:54:32;;;;;;;3.73;2.70;;;12.00;99.90;;;;;;5111996;28;20871;-68
2021/05/13 08:56:59;;;;;;;3.40;3.10;;;12.20;99.90;;;;;;5112638;28;20944;-67
2021/05/13 08:59:28;;;;;;;4.23;3.43;;;12.30;99.90;;;;;;5112326;28;20420;-67
2021/05/13 09:01:56;;;;;;;9.13;4.00;;;12.20;99.90;;;;;;5112460;28;20432;-68
2021/05/13 09:04:23;;;;;;;5.67;3.73;;;12.30;99.90;;;;;;5112440;28;20937;-67
2021/05/13 09:06:50;;;;;;;3.90;3.50;;;12.30;99.90;;;;;;5112102;28;20427;-67
2021/05/13 09:09:18;;;;;;;5.50;4.33;;;12.40;99.90;;;;;;5120530;27;20502;-67
2021/05/13 09:11:49;;;;;;;6.40;3.93;;;12.60;99.90;;;;;;5133045;27;20983;-67
2021/05/13 09:14:23;;;;;;;5.23;4.10;;;12.60;99.90;;;;;;5132285;27;20434;-67
2021/05/13 09:16:51;;;;;;;8.30;4.10;;;12.60;99.90;;;;;;5132652;27;20439;-68
2021/05/13 09:19:23;;;;;;;6.43;4.33;;;12.70;99.90;;;;;;5132256;27;20420;-67
2021/05/13 09:21:52;;;;;;;8.70;4.20;;;12.50;99.90;;;;;;5132793;27;20428;-67
2021/05/13 09:24:46;;;;;;;6.27;4.97;;;12.40;99.90;;;;;;5122811;27;20510;-67
2021/05/13 09:27:29;;;;;;;5.70;4.40;;;12.60;99.90;;;;;;5111010;28;20500;-67
2021/05/13 09:30:14;;;;;;;6.40;4.33;;;12.80;99.90;;;;;;5111088;28;20432;-67
2021/05/13 09:32:44;;;;;;;11.00;6.60;;;12.60;99.90;;;;;;5112184;28;20471;-67
2021/05/13 09:35:13;;;;;;;7.07;4.17;;;12.40;99.90;;;;;;5112010;28;20449;-67
2021/05/13 09:37:46;;;;;;;7.13;4.40;;;12.40;99.90;;;;;;5112152;28;20401;-67
2021/05/13 09:40:15;;;;;;;5.23;3.87;;;12.30;99.90;;;;;;5111739;28;20445;-67
2021/05/13 09:42:42;;;;;;;4.00;3.60;;;12.20;99.90;;;;;;5111657;27;20436;-67
2021/05/13 09:45:10;;;;;;;4.10;3.57;;;12.00;99.90;;;;;;5111743;28;20475;-67
2021/05/13 09:47:38;;;;;;;3.37;3.07;;;12.00;99.90;;;;;;5111913;28;20444;-68
2021/05/13 09:50:09;;;;;;;4.70;3.67;;;12.30;99.90;;;;;;5111437;28;20468;-67
2021/05/13 09:52:47;;;;;;;3.80;3.27;;;12.50;99.90;;;;;;5111678;28;20463;-67
2021/05/13 09:55:17;;;;;;;5.17;3.73;;;12.80;99.90;;;;;;5111394;28;20522;-67
2021/05/13 09:57:50;;;;;;;9.10;4.20;;;12.70;99.90;;;;;;5111307;28;20450;-67
2021/05/13 10:00:41;;;;;;;6.20;4.47;;;12.60;99.90;;;;;;5111056;28;20909;-67
2021/05/13 10:03:12;;;;;;;5.40;4.43;;;12.60;99.90;;;;;;5111664;28;20425;-68
2021/05/13 10:05:41;;;;;;;4.90;4.20;;;12.60;99.90;;;;;;5111618;28;20805;-68
2021/05/13 10:08:09;;;;;;;7.17;4.90;;;12.80;99.90;;;;;;5111590;28;20793;-67
2021/05/13 10:10:36;;;;;;;4.97;3.80;;;13.20;99.90;;;;;;5130176;27;20514;-67
2021/05/13 10:13:05;;;;;;;5.00;3.80;;;13.10;99.90;;;;;;5132053;27;21003;-67
2021/05/13 10:15:32;;;;;;;10.03;4.40;;;13.10;99.90;;;;;;5131839;27;21258;-67
2021/05/13 10:18:02;;;;;;;7.20;3.83;;;13.20;99.90;;;;;;5131801;27;20451;-68
2021/05/13 10:20:32;;;;;;;3.30;3.00;;;13.60;99.90;;;;;;5131789;27;20444;-67
2021/05/13 10:22:59;;;;;;;4.53;3.97;;;13.50;99.90;;;;;;5129925;27;20435;-67
2021/05/13 10:25:28;;;;;;;4.93;3.87;;;13.40;99.90;;;;;;5116091;27;20452;-67
2021/05/13 10:27:57;;;;;;;4.57;3.70;;;13.60;99.90;;;;;;5119537;27;20440;-68
2021/05/13 10:30:29;;;;;;;6.23;4.10;;;13.90;99.90;;;;;;5110578;28;20416;-68
2021/05/13 10:33:17;;;;;;;5.97;4.90;;;13.80;99.90;;;;;;5111350;28;20481;-67
2021/05/13 10:36:17;;;;;;;4.10;3.80;;;13.90;99.90;;;;;;5111124;28;20484;-67
2021/05/13 10:38:55;;;;;;;5.27;3.80;;;13.90;99.90;;;;;;5047857;28;20839;-67
2021/05/13 10:41:41;;;;;;;11.47;4.20;;;14.20;99.90;;;;;;5051490;28;20470;-67
2021/05/13 10:44:34;;;;;;;5.90;5.20;;;14.50;99.90;;;;;;5092938;28;20437;-67
2021/05/13 10:47:01;;;;;;;5.13;4.20;;;14.30;99.90;;;;;;5114885;28;20936;-67
2021/05/13 10:49:28;;;;;;;6.73;3.57;;;13.90;99.90;;;;;;5114769;28;20418;-67
2021/05/13 10:51:57;;;;;;;4.30;3.43;;;13.80;99.90;;;;;;5115153;28;20517;-67
2021/05/13 10:54:45;;;;;;;5.40;3.00;;;13.80;99.90;;;;;;5114548;27;20448;-67
2021/05/13 10:57:17;;;;;;;6.10;3.33;;;14.30;99.90;;;;;;5114913;28;20428;-67
2021/05/13 11:00:21;;;;;;;5.13;4.23;;;14.50;99.90;;;;;;5114431;28;20468;-67
2021/05/13 11:02:48;;;;;;;4.60;2.93;;;14.20;99.90;;;;;;5112695;27;20432;-67
2021/05/13 11:05:44;;;;;;;8.17;4.27;;;14.50;99.90;;;;;;5114846;28;20440;-66
2021/05/13 11:08:42;;;;;;;5.93;4.50;;;14.80;99.90;;;;;;5114768;28;20433;-67
2021/05/13 11:11:10;;;;;;;11.97;3.70;;;14.70;99.90;;;;;;5114922;28;20427;-67
2021/05/13 11:13:51;;;;;;;4.43;3.57;;;14.90;99.90;;;;;;5114000;27;21064;-67
2021/05/13 11:16:41;;;;;;;4.23;3.70;;;15.00;99.90;;;;;;5114495;28;20477;-67
2021/05/13 11:19:22;;;;;;;4.80;3.30;;;14.90;99.90;;;;;;5114534;28;20477;-67
2021/05/13 11:22:07;;;;;;;4.27;3.80;;;14.70;99.90;;;;;;5114000;28;20436;-66
2021/05/13 11:24:39;;;;;;;5.93;4.10;;;14.70;99.90;;;;;;5123221;27;20441;-67
2021/05/13 11:27:09;;;;;;;5.63;4.70;;;14.70;99.90;;;;;;5125508;27;20443;-67
2021/05/13 11:29:50;;;;;;;4.00;2.03;;;14.70;99.90;;;;;;5120700;27;20449;-67
2021/05/13 11:32:18;;;;;;;2.03;1.70;;;14.40;99.90;;;;;;5121499;27;20463;-67
2021/05/13 11:34:46;;;;;;;1.63;1.27;;;13.90;99.90;;;;;;5119499;27;20440;-67
2021/05/13 11:37:44;;;;;;;1.80;1.30;;;13.70;99.90;;;;;;5125115;27;20440;-67
2021/05/13 11:40:28;;;;;;;1.83;1.30;;;13.30;99.90;;;;;;5134632;27;20453;-67
2021/05/13 11:43:33;;;;;;;2.53;1.60;;;13.10;99.90;;;;;;5134537;27;20434;-67
2021/05/13 11:46:01;;;;;;;1.20;1.10;;;12.80;99.90;;;;;;5134580;27;20504;-69
2021/05/13 11:48:30;;;;;;;3.10;1.30;;;12.60;99.90;;;;;;5122833;27;20833;-71
2021/05/13 11:50:59;;;;;;;1.67;1.57;;;12.50;99.90;;;;;;5131030;27;20431;-68
2021/05/13 11:53:26;;;;;;;5.17;1.67;;;12.50;99.90;;;;;;5135489;27;20462;-67
2021/05/13 11:55:54;;;;;;;1.50;1.30;;;12.40;99.90;;;;;;5122533;27;20541;-72
2021/05/13 11:58:45;;;;;;;2.23;1.20;;;12.40;99.90;;;;;;5122563;27;20436;-73
2021/05/13 12:01:16;;;;;;;1.90;1.40;;;12.30;99.90;;;;;;5124380;27;20833;-71
2021/05/13 12:03:44;;;;;;;2.50;1.33;;;12.30;99.90;;;;;;5120789;27;20448;-69
2021/05/13 12:06:10;;;;;;;2.20;1.20;;;12.20;99.90;;;;;;5113821;28;20949;-72
2021/05/13 12:08:38;;;;;;;1.43;1.10;;;12.10;99.90;;;;;;5113838;28;20435;-71
2021/05/13 12:11:18;;;;;;;1.10;0.90;;;12.00;99.90;;;;;;5113947;28;20432;-73
2021/05/13 12:13:46;;;;;;;3.13;1.10;;;11.80;99.90;;;;;;5113378;28;20463;-73
2021/05/13 12:16:13;;;;;;;2.57;1.57;;;11.60;99.90;;;;;;5113744;28;20552;-73
2021/05/13 12:18:43;;;;;;;2.23;1.60;;;11.10;99.90;;;;;;5113376;28;20440;-71
2021/05/13 12:21:12;;;;;;;1.97;1.40;;;10.40;99.90;;;;;;5113825;27;20428;-72
2021/05/13 12:23:40;;;;;;;2.20;1.20;;;9.90;99.90;;;;;;5132842;27;20432;-73
2021/05/13 12:26:08;;;;;;;4.60;1.63;;;9.70;99.90;;;;;;5134433;27;20449;-72
2021/05/13 12:28:36;;;;;;;3.03;1.33;;;9.50;99.90;;;;;;5127080;27;20865;-73
2021/05/13 12:31:04;;;;;;;1.67;1.27;;;9.50;99.90;;;;;;5120110;27;20447;-74
2021/05/13 12:33:35;;;;;;;2.33;1.30;;;9.30;99.90;;;;;;5122529;27;20567;-72
2021/05/13 12:36:03;;;;;;;1.40;1.30;;;9.30;99.90;;;;;;5124207;27;20470;-71
2021/05/13 12:38:41;;;;;;;1.70;1.13;;;9.30;99.90;;;;;;5120045;27;20431;-72
2021/05/13 12:41:10;;;;;;;1.50;1.27;;;9.20;99.90;;;;;;5126561;27;20460;-70
2021/05/13 12:43:37;;;;;;;1.00;0.77;;;9.10;99.90;;;;;;5111967;28;20454;-71
2021/05/13 12:46:17;;;;;;;2.23;1.10;;;9.00;99.90;;;;;;5112589;28;20436;-70
2021/05/13 12:48:44;;;;;;;1.03;0.80;;;9.00;99.90;;;;;;5117658;27;20416;-71
2021/05/13 12:51:18;;;;;;;1.30;0.80;;;9.00;99.90;;;;;;5130339;27;20427;-70
2021/05/13 12:53:50;;;;;;;1.87;0.83;;;9.10;99.90;;;;;;5112576;28;20596;-70
2021/05/13 12:56:31;;;;;;;1.00;0.90;;;9.20;99.90;;;;;;5121516;27;20493;-70
2021/05/13 12:59:09;;;;;;;1.00;0.80;;;9.30;99.90;;;;;;5121547;27;20454;-70